EBLB

Elsenborn Airport

Bütgenbach, Belgium
METAR EBLB 190455Z AUTO 00000KT 3900 FG BKN006/// OVC051/// 10/10 Q1020 YLO
Observed Flight Rules
Sep-19 @ 04:55 UTC (19 minutes ago) Instrument Flight Rules
Visibility Clouds Conditions
3,895 meters
  • Broken at 600' AGL
  • Overcast at 5,100' AGL
  • Fog
Temperatures Readings
Current 10°C / 50°F
Dewpoint 10°C / 50°F
Humidity 100%
Altimeter 30.12" Hg
Pressure 1020 hPa
Elevation 570
METAR EBLB 190455Z AUTO 00000KT 3900 FG BKN006/// OVC051/// 10/10 Q1020 YLO
Observed Flight Rules
Sep-19 @ 04:55 UTC
(19 minutes ago)
IFR
Clouds
  • Broken at 600' AGL
  • Overcast at 5,100' AGL
Conditions
  • Fog
Temperature Dewpoint
10°C / 50°F 10°C / 50°F
Humidity Altimeter Pressure
100% 30.12" Hg 1020 hPa